sensor_id;sensor_type;location;lat;lon;timestamp;P1;durP1;ratioP1;P2;durP2;ratioP2
41875;SDS011;27555;50.808;4.402;2023-07-20T00:01:45;14.27;;;2.10;;
41875;SDS011;27555;50.808;4.402;2023-07-20T00:04:11;6.40;;;1.98;;
41875;SDS011;27555;50.808;4.402;2023-07-20T00:06:38;5.97;;;1.40;;
41875;SDS011;27555;50.808;4.402;2023-07-20T00:09:05;9.85;;;1.30;;
41875;SDS011;27555;50.808;4.402;2023-07-20T00:11:32;5.47;;;1.48;;
41875;SDS011;27555;50.808;4.402;2023-07-20T00:14:01;5.95;;;2.03;;
41875;SDS011;27555;50.808;4.402;2023-07-20T00:16:26;5.47;;;1.67;;
41875;SDS011;27555;50.808;4.402;2023-07-20T00:18:52;5.18;;;1.70;;
41875;SDS011;27555;50.808;4.402;2023-07-20T00:21:17;5.40;;;1.73;;
41875;SDS011;27555;50.808;4.402;2023-07-20T00:23:43;7.43;;;1.52;;
41875;SDS011;27555;50.808;4.402;2023-07-20T00:26:09;4.95;;;1.95;;
41875;SDS011;27555;50.808;4.402;2023-07-20T00:28:34;5.53;;;1.60;;
41875;SDS011;27555;50.808;4.402;2023-07-20T00:31:00;6.80;;;1.42;;
41875;SDS011;27555;50.808;4.402;2023-07-20T00:33:26;13.07;;;2.80;;
41875;SDS011;27555;50.808;4.402;2023-07-20T00:35:51;4.95;;;1.40;;
41875;SDS011;27555;50.808;4.402;2023-07-20T00:38:17;6.82;;;2.05;;
41875;SDS011;27555;50.808;4.402;2023-07-20T00:40:43;8.00;;;1.63;;
41875;SDS011;27555;50.808;4.402;2023-07-20T00:43:09;7.47;;;1.80;;
41875;SDS011;27555;50.808;4.402;2023-07-20T00:45:34;5.55;;;1.80;;
41875;SDS011;27555;50.808;4.402;2023-07-20T00:48:01;5.65;;;1.65;;
41875;SDS011;27555;50.808;4.402;2023-07-20T00:50:29;4.43;;;1.63;;
41875;SDS011;27555;50.808;4.402;2023-07-20T00:52:55;4.70;;;2.00;;
41875;SDS011;27555;50.808;4.402;2023-07-20T00:55:22;6.15;;;2.20;;
41875;SDS011;27555;50.808;4.402;2023-07-20T00:57:50;6.40;;;1.60;;
41875;SDS011;27555;50.808;4.402;2023-07-20T01:00:16;10.52;;;2.15;;
41875;SDS011;27555;50.808;4.402;2023-07-20T01:02:42;8.23;;;1.83;;
41875;SDS011;27555;50.808;4.402;2023-07-20T01:05:08;7.70;;;2.22;;
41875;SDS011;27555;50.808;4.402;2023-07-20T01:07:43;7.10;;;1.80;;
41875;SDS011;27555;50.808;4.402;2023-07-20T01:10:22;9.10;;;2.20;;
41875;SDS011;27555;50.808;4.402;2023-07-20T01:12:55;7.88;;;1.90;;
41875;SDS011;27555;50.808;4.402;2023-07-20T01:15:22;9.25;;;1.75;;
41875;SDS011;27555;50.808;4.402;2023-07-20T01:17:48;10.02;;;3.75;;
41875;SDS011;27555;50.808;4.402;2023-07-20T01:20:14;10.02;;;1.83;;
41875;SDS011;27555;50.808;4.402;2023-07-20T01:33:17;6.68;;;2.05;;
41875;SDS011;27555;50.808;4.402;2023-07-20T01:35:45;7.45;;;2.67;;
41875;SDS011;27555;50.808;4.402;2023-07-20T01:40:41;10.05;;;1.98;;
41875;SDS011;27555;50.808;4.402;2023-07-20T01:43:07;10.85;;;2.15;;
41875;SDS011;27555;50.808;4.402;2023-07-20T01:45:32;8.25;;;2.30;;
41875;SDS011;27555;50.808;4.402;2023-07-20T01:47:58;6.25;;;2.08;;
41875;SDS011;27555;50.808;4.402;2023-07-20T01:50:23;5.68;;;2.10;;
41875;SDS011;27555;50.808;4.402;2023-07-20T01:52:49;7.38;;;2.40;;
41875;SDS011;27555;50.808;4.402;2023-07-20T01:55:14;8.18;;;2.08;;
41875;SDS011;27555;50.808;4.402;2023-07-20T01:57:40;13.75;;;2.58;;
41875;SDS011;27555;50.808;4.402;2023-07-20T02:00:06;9.48;;;2.53;;
41875;SDS011;27555;50.808;4.402;2023-07-20T02:02:33;12.15;;;2.45;;
41875;SDS011;27555;50.808;4.402;2023-07-20T02:04:59;8.52;;;2.92;;
41875;SDS011;27555;50.808;4.402;2023-07-20T02:07:24;8.43;;;2.30;;
41875;SDS011;27555;50.808;4.402;2023-07-20T02:09:50;8.82;;;2.83;;
41875;SDS011;27555;50.808;4.402;2023-07-20T02:12:16;11.32;;;3.67;;
41875;SDS011;27555;50.808;4.402;2023-07-20T02:14:42;10.55;;;3.05;;
41875;SDS011;27555;50.808;4.402;2023-07-20T02:17:07;21.60;;;3.80;;
41875;SDS011;27555;50.808;4.402;2023-07-20T02:19:35;10.85;;;3.05;;
41875;SDS011;27555;50.808;4.402;2023-07-20T02:22:01;8.65;;;2.63;;
41875;SDS011;27555;50.808;4.402;2023-07-20T02:24:27;10.13;;;2.83;;
41875;SDS011;27555;50.808;4.402;2023-07-20T02:26:52;9.80;;;3.40;;
41875;SDS011;27555;50.808;4.402;2023-07-20T02:29:18;20.63;;;3.40;;
41875;SDS011;27555;50.808;4.402;2023-07-20T02:31:44;8.00;;;3.03;;
41875;SDS011;27555;50.808;4.402;2023-07-20T02:34:09;13.95;;;3.95;;
41875;SDS011;27555;50.808;4.402;2023-07-20T02:36:35;13.85;;;3.22;;
41875;SDS011;27555;50.808;4.402;2023-07-20T02:39:00;12.13;;;3.40;;
41875;SDS011;27555;50.808;4.402;2023-07-20T02:41:29;13.10;;;3.67;;
41875;SDS011;27555;50.808;4.402;2023-07-20T02:43:55;12.13;;;4.10;;
41875;SDS011;27555;50.808;4.402;2023-07-20T02:46:21;7.65;;;4.05;;
41875;SDS011;27555;50.808;4.402;2023-07-20T02:48:47;14.65;;;4.50;;
41875;SDS011;27555;50.808;4.402;2023-07-20T02:51:12;16.83;;;4.95;;
41875;SDS011;27555;50.808;4.402;2023-07-20T02:53:38;19.83;;;5.20;;
41875;SDS011;27555;50.808;4.402;2023-07-20T02:56:04;12.52;;;5.40;;
41875;SDS011;27555;50.808;4.402;2023-07-20T02:58:29;14.52;;;5.05;;
41875;SDS011;27555;50.808;4.402;2023-07-20T03:00:55;14.60;;;4.70;;
41875;SDS011;27555;50.808;4.402;2023-07-20T03:03:20;16.73;;;4.53;;
41875;SDS011;27555;50.808;4.402;2023-07-20T03:05:46;13.07;;;4.95;;
41875;SDS011;27555;50.808;4.402;2023-07-20T03:08:11;19.38;;;5.47;;
41875;SDS011;27555;50.808;4.402;2023-07-20T03:10:40;13.45;;;5.22;;
41875;SDS011;27555;50.808;4.402;2023-07-20T03:13:06;17.23;;;5.25;;
41875;SDS011;27555;50.808;4.402;2023-07-20T03:15:32;15.65;;;5.40;;
41875;SDS011;27555;50.808;4.402;2023-07-20T03:17:59;13.35;;;4.82;;
41875;SDS011;27555;50.808;4.402;2023-07-20T03:20:24;13.77;;;5.00;;
41875;SDS011;27555;50.808;4.402;2023-07-20T03:22:50;13.65;;;5.03;;
41875;SDS011;27555;50.808;4.402;2023-07-20T03:25:16;14.30;;;5.70;;
41875;SDS011;27555;50.808;4.402;2023-07-20T03:27:42;13.98;;;5.38;;
41875;SDS011;27555;50.808;4.402;2023-07-20T03:30:08;13.85;;;5.45;;
41875;SDS011;27555;50.808;4.402;2023-07-20T03:32:34;15.98;;;5.00;;
41875;SDS011;27555;50.808;4.402;2023-07-20T03:35:00;12.68;;;5.65;;
41875;SDS011;27555;50.808;4.402;2023-07-20T03:37:26;14.65;;;4.90;;
41875;SDS011;27555;50.808;4.402;2023-07-20T03:39:51;18.48;;;5.55;;
41875;SDS011;27555;50.808;4.402;2023-07-20T03:42:17;12.70;;;5.13;;
41875;SDS011;27555;50.808;4.402;2023-07-20T03:44:43;13.52;;;5.03;;
41875;SDS011;27555;50.808;4.402;2023-07-20T03:47:08;13.57;;;6.30;;
41875;SDS011;27555;50.808;4.402;2023-07-20T03:49:34;12.55;;;5.53;;
41875;SDS011;27555;50.808;4.402;2023-07-20T03:52:00;18.80;;;5.80;;
41875;SDS011;27555;50.808;4.402;2023-07-20T03:54:28;10.88;;;4.70;;
41875;SDS011;27555;50.808;4.402;2023-07-20T03:56:54;25.88;;;6.95;;
41875;SDS011;27555;50.808;4.402;2023-07-20T03:59:19;13.73;;;5.75;;
41875;SDS011;27555;50.808;4.402;2023-07-20T04:01:45;16.30;;;6.20;;
41875;SDS011;27555;50.808;4.402;2023-07-20T04:04:11;24.63;;;7.22;;
41875;SDS011;27555;50.808;4.402;2023-07-20T04:06:36;16.42;;;5.15;;
41875;SDS011;27555;50.808;4.402;2023-07-20T04:09:03;19.63;;;6.30;;
41875;SDS011;27555;50.808;4.402;2023-07-20T04:11:30;19.65;;;6.70;;
41875;SDS011;27555;50.808;4.402;2023-07-20T04:13:55;16.27;;;6.88;;
41875;SDS011;27555;50.808;4.402;2023-07-20T04:16:21;12.93;;;5.47;;
41875;SDS011;27555;50.808;4.402;2023-07-20T04:18:47;17.27;;;6.80;;
41875;SDS011;27555;50.808;4.402;2023-07-20T04:21:12;17.63;;;6.25;;
41875;SDS011;27555;50.808;4.402;2023-07-20T04:23:38;14.65;;;6.47;;
41875;SDS011;27555;50.808;4.402;2023-07-20T04:26:03;14.48;;;7.13;;
41875;SDS011;27555;50.808;4.402;2023-07-20T04:28:29;17.35;;;6.97;;
41875;SDS011;27555;50.808;4.402;2023-07-20T04:30:55;16.80;;;7.35;;
41875;SDS011;27555;50.808;4.402;2023-07-20T04:33:36;16.38;;;6.60;;
41875;SDS011;27555;50.808;4.402;2023-07-20T04:36:01;23.10;;;7.18;;
41875;SDS011;27555;50.808;4.402;2023-07-20T04:38:28;14.23;;;6.78;;
41875;SDS011;27555;50.808;4.402;2023-07-20T04:40:53;22.45;;;7.50;;
41875;SDS011;27555;50.808;4.402;2023-07-20T04:43:19;20.42;;;7.57;;
41875;SDS011;27555;50.808;4.402;2023-07-20T04:45:44;19.13;;;7.63;;
41875;SDS011;27555;50.808;4.402;2023-07-20T04:48:12;12.45;;;7.80;;
41875;SDS011;27555;50.808;4.402;2023-07-20T04:50:42;15.77;;;7.65;;
41875;SDS011;27555;50.808;4.402;2023-07-20T04:53:09;21.15;;;7.10;;
41875;SDS011;27555;50.808;4.402;2023-07-20T04:55:36;18.20;;;7.43;;
41875;SDS011;27555;50.808;4.402;2023-07-20T04:58:05;16.98;;;8.07;;
41875;SDS011;27555;50.808;4.402;2023-07-20T05:00:35;16.60;;;7.32;;
41875;SDS011;27555;50.808;4.402;2023-07-20T05:03:02;16.00;;;7.30;;
41875;SDS011;27555;50.808;4.402;2023-07-20T05:05:30;15.23;;;7.47;;
41875;SDS011;27555;50.808;4.402;2023-07-20T05:07:55;15.07;;;6.68;;
41875;SDS011;27555;50.808;4.402;2023-07-20T05:10:21;15.40;;;6.32;;
41875;SDS011;27555;50.808;4.402;2023-07-20T05:12:47;15.90;;;7.15;;
41875;SDS011;27555;50.808;4.402;2023-07-20T05:15:12;17.52;;;7.13;;
41875;SDS011;27555;50.808;4.402;2023-07-20T05:17:38;18.27;;;7.57;;
41875;SDS011;27555;50.808;4.402;2023-07-20T05:20:04;20.55;;;7.90;;
41875;SDS011;27555;50.808;4.402;2023-07-20T05:22:30;17.38;;;7.75;;
41875;SDS011;27555;50.808;4.402;2023-07-20T05:24:56;16.60;;;7.38;;
41875;SDS011;27555;50.808;4.402;2023-07-20T05:27:22;16.40;;;7.78;;
41875;SDS011;27555;50.808;4.402;2023-07-20T05:29:47;16.35;;;6.82;;
41875;SDS011;27555;50.808;4.402;2023-07-20T05:32:13;21.52;;;7.30;;
41875;SDS011;27555;50.808;4.402;2023-07-20T05:34:40;17.33;;;7.05;;
41875;SDS011;27555;50.808;4.402;2023-07-20T05:37:05;12.60;;;6.88;;
41875;SDS011;27555;50.808;4.402;2023-07-20T05:39:34;16.13;;;7.57;;
41875;SDS011;27555;50.808;4.402;2023-07-20T05:41:59;18.15;;;7.32;;
41875;SDS011;27555;50.808;4.402;2023-07-20T05:44:25;17.25;;;7.40;;
41875;SDS011;27555;50.808;4.402;2023-07-20T05:46:50;15.88;;;7.65;;
41875;SDS011;27555;50.808;4.402;2023-07-20T05:49:16;23.20;;;7.18;;
41875;SDS011;27555;50.808;4.402;2023-07-20T05:51:41;14.23;;;7.13;;
41875;SDS011;27555;50.808;4.402;2023-07-20T05:54:07;13.32;;;6.88;;
41875;SDS011;27555;50.808;4.402;2023-07-20T05:56:33;14.73;;;7.22;;
41875;SDS011;27555;50.808;4.402;2023-07-20T05:58:58;18.88;;;7.43;;
41875;SDS011;27555;50.808;4.402;2023-07-20T06:01:24;19.40;;;7.72;;
41875;SDS011;27555;50.808;4.402;2023-07-20T06:03:52;9.18;;;5.75;;
41875;SDS011;27555;50.808;4.402;2023-07-20T06:06:18;11.18;;;7.10;;
41875;SDS011;27555;50.808;4.402;2023-07-20T06:08:44;18.88;;;6.93;;
41875;SDS011;27555;50.808;4.402;2023-07-20T06:11:09;13.07;;;6.38;;
41875;SDS011;27555;50.808;4.402;2023-07-20T06:13:35;13.10;;;6.65;;
41875;SDS011;27555;50.808;4.402;2023-07-20T06:16:00;18.00;;;6.93;;
41875;SDS011;27555;50.808;4.402;2023-07-20T06:18:26;20.92;;;6.65;;
41875;SDS011;27555;50.808;4.402;2023-07-20T06:20:52;12.80;;;6.13;;
41875;SDS011;27555;50.808;4.402;2023-07-20T06:23:18;12.27;;;6.30;;
41875;SDS011;27555;50.808;4.402;2023-07-20T06:25:44;12.20;;;6.10;;
41875;SDS011;27555;50.808;4.402;2023-07-20T06:28:10;16.65;;;7.03;;
41875;SDS011;27555;50.808;4.402;2023-07-20T06:30:36;11.55;;;5.30;;
41875;SDS011;27555;50.808;4.402;2023-07-20T06:33:02;10.25;;;5.80;;
41875;SDS011;27555;50.808;4.402;2023-07-20T06:35:27;10.85;;;5.72;;
41875;SDS011;27555;50.808;4.402;2023-07-20T06:37:53;12.68;;;5.82;;
41875;SDS011;27555;50.808;4.402;2023-07-20T06:40:18;16.40;;;6.53;;
41875;SDS011;27555;50.808;4.402;2023-07-20T06:42:44;19.13;;;7.07;;
41875;SDS011;27555;50.808;4.402;2023-07-20T06:45:10;11.43;;;4.47;;
41875;SDS011;27555;50.808;4.402;2023-07-20T06:47:38;14.43;;;4.15;;
41875;SDS011;27555;50.808;4.402;2023-07-20T06:50:05;8.90;;;4.45;;
41875;SDS011;27555;50.808;4.402;2023-07-20T06:55:00;10.18;;;5.38;;
41875;SDS011;27555;50.808;4.402;2023-07-20T06:57:26;12.90;;;5.35;;
41875;SDS011;27555;50.808;4.402;2023-07-20T06:59:51;14.85;;;5.10;;
41875;SDS011;27555;50.808;4.402;2023-07-20T07:02:18;11.55;;;4.53;;
41875;SDS011;27555;50.808;4.402;2023-07-20T07:04:44;16.15;;;6.55;;
41875;SDS011;27555;50.808;4.402;2023-07-20T07:07:11;15.35;;;6.57;;
41875;SDS011;27555;50.808;4.402;2023-07-20T07:09:40;13.88;;;6.32;;
41875;SDS011;27555;50.808;4.402;2023-07-20T07:12:07;17.77;;;6.10;;
41875;SDS011;27555;50.808;4.402;2023-07-20T07:14:33;14.07;;;5.97;;
41875;SDS011;27555;50.808;4.402;2023-07-20T07:16:59;8.52;;;5.82;;
41875;SDS011;27555;50.808;4.402;2023-07-20T07:19:25;7.72;;;4.80;;
41875;SDS011;27555;50.808;4.402;2023-07-20T07:21:51;13.38;;;4.75;;
41875;SDS011;27555;50.808;4.402;2023-07-20T07:24:16;10.93;;;4.38;;
41875;SDS011;27555;50.808;4.402;2023-07-20T07:26:42;11.95;;;5.13;;
41875;SDS011;27555;50.808;4.402;2023-07-20T07:29:07;9.90;;;5.03;;
41875;SDS011;27555;50.808;4.402;2023-07-20T07:31:34;9.82;;;4.45;;
41875;SDS011;27555;50.808;4.402;2023-07-20T07:34:03;11.90;;;4.32;;
41875;SDS011;27555;50.808;4.402;2023-07-20T07:36:30;9.98;;;4.53;;
41875;SDS011;27555;50.808;4.402;2023-07-20T07:38:56;5.25;;;3.38;;
41875;SDS011;27555;50.808;4.402;2023-07-20T07:41:22;3.78;;;2.20;;
41875;SDS011;27555;50.808;4.402;2023-07-20T07:43:48;11.85;;;3.00;;
41875;SDS011;27555;50.808;4.402;2023-07-20T07:46:13;4.32;;;2.63;;
41875;SDS011;27555;50.808;4.402;2023-07-20T07:48:39;4.53;;;2.35;;
41875;SDS011;27555;50.808;4.402;2023-07-20T07:51:04;8.48;;;3.05;;
41875;SDS011;27555;50.808;4.402;2023-07-20T07:53:30;8.30;;;3.30;;
41875;SDS011;27555;50.808;4.402;2023-07-20T07:55:57;14.82;;;3.45;;
41875;SDS011;27555;50.808;4.402;2023-07-20T07:58:23;6.97;;;3.30;;
41875;SDS011;27555;50.808;4.402;2023-07-20T08:00:48;6.70;;;3.00;;
41875;SDS011;27555;50.808;4.402;2023-07-20T08:03:14;11.68;;;3.85;;
41875;SDS011;27555;50.808;4.402;2023-07-20T08:05:40;13.05;;;3.67;;
41875;SDS011;27555;50.808;4.402;2023-07-20T08:08:05;4.28;;;2.60;;
41875;SDS011;27555;50.808;4.402;2023-07-20T08:10:31;5.75;;;2.63;;
41875;SDS011;27555;50.808;4.402;2023-07-20T08:12:56;5.43;;;2.55;;
41875;SDS011;27555;50.808;4.402;2023-07-20T08:15:22;3.97;;;2.03;;
41875;SDS011;27555;50.808;4.402;2023-07-20T08:17:48;8.52;;;3.15;;
41875;SDS011;27555;50.808;4.402;2023-07-20T08:20:16;7.20;;;2.15;;
41875;SDS011;27555;50.808;4.402;2023-07-20T08:22:42;3.45;;;1.77;;
41875;SDS011;27555;50.808;4.402;2023-07-20T08:25:08;2.13;;;1.60;;
41875;SDS011;27555;50.808;4.402;2023-07-20T08:27:34;3.70;;;1.55;;
41875;SDS011;27555;50.808;4.402;2023-07-20T08:30:01;7.60;;;1.75;;
41875;SDS011;27555;50.808;4.402;2023-07-20T08:32:29;25.63;;;2.42;;
41875;SDS011;27555;50.808;4.402;2023-07-20T08:34:54;11.85;;;2.00;;
41875;SDS011;27555;50.808;4.402;2023-07-20T08:37:20;4.10;;;1.55;;
41875;SDS011;27555;50.808;4.402;2023-07-20T08:39:46;5.88;;;1.80;;
41875;SDS011;27555;50.808;4.402;2023-07-20T08:42:11;7.22;;;1.70;;
41875;SDS011;27555;50.808;4.402;2023-07-20T08:44:39;6.30;;;1.38;;
41875;SDS011;27555;50.808;4.402;2023-07-20T08:47:07;4.25;;;1.27;;
41875;SDS011;27555;50.808;4.402;2023-07-20T08:49:34;4.18;;;1.70;;
41875;SDS011;27555;50.808;4.402;2023-07-20T08:52:00;3.03;;;1.10;;
41875;SDS011;27555;50.808;4.402;2023-07-20T08:54:29;6.93;;;1.83;;
41875;SDS011;27555;50.808;4.402;2023-07-20T08:57:02;6.97;;;2.15;;
41875;SDS011;27555;50.808;4.402;2023-07-20T08:59:29;2.78;;;1.20;;
41875;SDS011;27555;50.808;4.402;2023-07-20T09:01:56;2.50;;;0.95;;
41875;SDS011;27555;50.808;4.402;2023-07-20T09:04:23;3.88;;;0.80;;
41875;SDS011;27555;50.808;4.402;2023-07-20T09:06:49;5.82;;;1.48;;
41875;SDS011;27555;50.808;4.402;2023-07-20T09:09:14;3.17;;;1.00;;
41875;SDS011;27555;50.808;4.402;2023-07-20T09:11:40;3.10;;;0.93;;
41875;SDS011;27555;50.808;4.402;2023-07-20T09:14:06;5.35;;;1.15;;
41875;SDS011;27555;50.808;4.402;2023-07-20T09:16:46;3.67;;;1.00;;
41875;SDS011;27555;50.808;4.402;2023-07-20T09:19:17;1.85;;;0.80;;
41875;SDS011;27555;50.808;4.402;2023-07-20T09:21:46;2.75;;;1.15;;
41875;SDS011;27555;50.808;4.402;2023-07-20T09:24:13;4.82;;;1.30;;
41875;SDS011;27555;50.808;4.402;2023-07-20T09:26:43;1.95;;;0.82;;
41875;SDS011;27555;50.808;4.402;2023-07-20T09:29:09;1.73;;;0.63;;
41875;SDS011;27555;50.808;4.402;2023-07-20T09:31:35;3.28;;;0.90;;
41875;SDS011;27555;50.808;4.402;2023-07-20T09:34:01;4.32;;;0.82;;
41875;SDS011;27555;50.808;4.402;2023-07-20T09:36:27;2.85;;;0.77;;
41875;SDS011;27555;50.808;4.402;2023-07-20T09:38:53;2.00;;;0.77;;
41875;SDS011;27555;50.808;4.402;2023-07-20T09:41:19;2.22;;;0.73;;
41875;SDS011;27555;50.808;4.402;2023-07-20T09:43:45;1.60;;;0.80;;
41875;SDS011;27555;50.808;4.402;2023-07-20T09:46:11;2.88;;;0.90;;
41875;SDS011;27555;50.808;4.402;2023-07-20T09:48:37;1.33;;;0.77;;
41875;SDS011;27555;50.808;4.402;2023-07-20T09:51:03;5.88;;;0.98;;
41875;SDS011;27555;50.808;4.402;2023-07-20T09:53:30;2.92;;;1.20;;
41875;SDS011;27555;50.808;4.402;2023-07-20T09:55:58;7.53;;;0.80;;
41875;SDS011;27555;50.808;4.402;2023-07-20T09:58:23;6.38;;;0.95;;
41875;SDS011;27555;50.808;4.402;2023-07-20T10:00:51;8.57;;;1.42;;
41875;SDS011;27555;50.808;4.402;2023-07-20T10:03:19;27.30;;;2.65;;
41875;SDS011;27555;50.808;4.402;2023-07-20T10:05:48;14.52;;;1.38;;
41875;SDS011;27555;50.808;4.402;2023-07-20T10:08:19;4.28;;;0.75;;
41875;SDS011;27555;50.808;4.402;2023-07-20T10:10:48;15.40;;;1.45;;
41875;SDS011;27555;50.808;4.402;2023-07-20T10:13:17;1.63;;;0.75;;
41875;SDS011;27555;50.808;4.402;2023-07-20T10:15:53;3.22;;;0.50;;
41875;SDS011;27555;50.808;4.402;2023-07-20T10:18:30;2.42;;;0.90;;
41875;SDS011;27555;50.808;4.402;2023-07-20T10:21:03;2.50;;;0.68;;
41875;SDS011;27555;50.808;4.402;2023-07-20T10:23:32;2.33;;;0.82;;
41875;SDS011;27555;50.808;4.402;2023-07-20T10:25:58;5.97;;;0.88;;
41875;SDS011;27555;50.808;4.402;2023-07-20T10:28:25;7.00;;;1.00;;
41875;SDS011;27555;50.808;4.402;2023-07-20T10:30:52;1.77;;;0.73;;
41875;SDS011;27555;50.808;4.402;2023-07-20T10:33:18;2.58;;;0.80;;
41875;SDS011;27555;50.808;4.402;2023-07-20T10:35:55;8.45;;;1.10;;
41875;SDS011;27555;50.808;4.402;2023-07-20T10:38:52;2.42;;;0.70;;
41875;SDS011;27555;50.808;4.402;2023-07-20T10:43:44;7.43;;;0.80;;
41875;SDS011;27555;50.808;4.402;2023-07-20T10:46:11;2.80;;;0.80;;
41875;SDS011;27555;50.808;4.402;2023-07-20T10:51:24;1.88;;;0.60;;
41875;SDS011;27555;50.808;4.402;2023-07-20T10:53:50;2.35;;;0.70;;
41875;SDS011;27555;50.808;4.402;2023-07-20T10:56:23;0.65;;;0.45;;
41875;SDS011;27555;50.808;4.402;2023-07-20T10:58:54;3.88;;;0.75;;
41875;SDS011;27555;50.808;4.402;2023-07-20T11:01:27;3.42;;;0.88;;
41875;SDS011;27555;50.808;4.402;2023-07-20T11:03:57;1.23;;;0.75;;
41875;SDS011;27555;50.808;4.402;2023-07-20T11:08:56;3.90;;;0.60;;
41875;SDS011;27555;50.808;4.402;2023-07-20T11:11:36;2.05;;;0.70;;
41875;SDS011;27555;50.808;4.402;2023-07-20T11:14:07;1.80;;;0.88;;
41875;SDS011;27555;50.808;4.402;2023-07-20T11:19:21;2.05;;;1.15;;
41875;SDS011;27555;50.808;4.402;2023-07-20T11:21:50;5.03;;;1.63;;
41875;SDS011;27555;50.808;4.402;2023-07-20T11:24:16;4.40;;;0.93;;
41875;SDS011;27555;50.808;4.402;2023-07-20T11:26:43;4.85;;;1.00;;
41875;SDS011;27555;50.808;4.402;2023-07-20T11:29:10;2.65;;;1.02;;
41875;SDS011;27555;50.808;4.402;2023-07-20T11:31:38;1.05;;;0.95;;
41875;SDS011;27555;50.808;4.402;2023-07-20T11:34:04;4.57;;;0.85;;
41875;SDS011;27555;50.808;4.402;2023-07-20T11:36:30;1.25;;;0.77;;
41875;SDS011;27555;50.808;4.402;2023-07-20T11:38:57;1.88;;;1.02;;
41875;SDS011;27555;50.808;4.402;2023-07-20T11:41:24;7.90;;;1.60;;
41875;SDS011;27555;50.808;4.402;2023-07-20T11:43:51;2.25;;;1.33;;
41875;SDS011;27555;50.808;4.402;2023-07-20T11:46:16;6.32;;;1.23;;
41875;SDS011;27555;50.808;4.402;2023-07-20T11:48:42;4.13;;;1.23;;
41875;SDS011;27555;50.808;4.402;2023-07-20T11:51:14;2.33;;;1.10;;
41875;SDS011;27555;50.808;4.402;2023-07-20T11:53:44;4.32;;;1.42;;
41875;SDS011;27555;50.808;4.402;2023-07-20T11:56:11;3.63;;;1.10;;
41875;SDS011;27555;50.808;4.402;2023-07-20T11:58:41;6.47;;;1.58;;
41875;SDS011;27555;50.808;4.402;2023-07-20T12:01:11;4.28;;;1.10;;
41875;SDS011;27555;50.808;4.402;2023-07-20T12:03:37;4.35;;;1.13;;
41875;SDS011;27555;50.808;4.402;2023-07-20T12:06:06;2.25;;;1.15;;
41875;SDS011;27555;50.808;4.402;2023-07-20T12:08:33;3.17;;;1.08;;
41875;SDS011;27555;50.808;4.402;2023-07-20T12:10:59;2.58;;;0.93;;
41875;SDS011;27555;50.808;4.402;2023-07-20T12:13:46;3.47;;;1.10;;
41875;SDS011;27555;50.808;4.402;2023-07-20T12:16:11;5.93;;;1.33;;
41875;SDS011;27555;50.808;4.402;2023-07-20T12:18:42;5.47;;;1.30;;
41875;SDS011;27555;50.808;4.402;2023-07-20T12:21:08;5.13;;;1.30;;
41875;SDS011;27555;50.808;4.402;2023-07-20T12:23:38;2.15;;;1.27;;
41875;SDS011;27555;50.808;4.402;2023-07-20T12:26:08;6.97;;;1.45;;
41875;SDS011;27555;50.808;4.402;2023-07-20T12:28:38;8.88;;;1.20;;
41875;SDS011;27555;50.808;4.402;2023-07-20T12:31:05;38.63;;;2.78;;
41875;SDS011;27555;50.808;4.402;2023-07-20T12:33:32;15.25;;;1.85;;
41875;SDS011;27555;50.808;4.402;2023-07-20T12:35:57;15.48;;;2.00;;
41875;SDS011;27555;50.808;4.402;2023-07-20T12:38:25;2.53;;;1.10;;
41875;SDS011;27555;50.808;4.402;2023-07-20T12:40:52;19.42;;;2.15;;
41875;SDS011;27555;50.808;4.402;2023-07-20T12:43:19;4.95;;;1.17;;
41875;SDS011;27555;50.808;4.402;2023-07-20T12:45:45;7.85;;;1.08;;
41875;SDS011;27555;50.808;4.402;2023-07-20T12:48:11;3.60;;;1.17;;
41875;SDS011;27555;50.808;4.402;2023-07-20T12:50:36;1.45;;;0.98;;
41875;SDS011;27555;50.808;4.402;2023-07-20T12:53:02;2.85;;;0.90;;
41875;SDS011;27555;50.808;4.402;2023-07-20T12:55:28;6.68;;;0.90;;
41875;SDS011;27555;50.808;4.402;2023-07-20T12:57:54;3.17;;;1.20;;
41875;SDS011;27555;50.808;4.402;2023-07-20T13:00:20;1.40;;;1.10;;
41875;SDS011;27555;50.808;4.402;2023-07-20T13:02:48;5.75;;;0.90;;
41875;SDS011;27555;50.808;4.402;2023-07-20T13:05:14;9.73;;;2.05;;
41875;SDS011;27555;50.808;4.402;2023-07-20T13:07:40;4.45;;;1.23;;
41875;SDS011;27555;50.808;4.402;2023-07-20T13:10:06;2.22;;;0.77;;
41875;SDS011;27555;50.808;4.402;2023-07-20T13:12:32;7.85;;;1.10;;
41875;SDS011;27555;50.808;4.402;2023-07-20T13:14:59;10.50;;;1.58;;
41875;SDS011;27555;50.808;4.402;2023-07-20T13:17:27;9.88;;;1.33;;
41875;SDS011;27555;50.808;4.402;2023-07-20T13:19:54;3.40;;;1.20;;
41875;SDS011;27555;50.808;4.402;2023-07-20T13:22:20;7.10;;;1.40;;
41875;SDS011;27555;50.808;4.402;2023-07-20T13:24:46;8.52;;;1.27;;
41875;SDS011;27555;50.808;4.402;2023-07-20T13:27:17;7.30;;;2.15;;
41875;SDS011;27555;50.808;4.402;2023-07-20T13:29:43;4.45;;;1.02;;
41875;SDS011;27555;50.808;4.402;2023-07-20T13:32:10;11.57;;;1.92;;
41875;SDS011;27555;50.808;4.402;2023-07-20T13:34:38;25.38;;;2.72;;
41875;SDS011;27555;50.808;4.402;2023-07-20T13:37:04;5.55;;;1.52;;
41875;SDS011;27555;50.808;4.402;2023-07-20T13:39:30;16.48;;;2.58;;
41875;SDS011;27555;50.808;4.402;2023-07-20T13:41:55;12.50;;;1.67;;
41875;SDS011;27555;50.808;4.402;2023-07-20T13:44:21;9.13;;;1.70;;
41875;SDS011;27555;50.808;4.402;2023-07-20T13:46:47;2.47;;;1.33;;
41875;SDS011;27555;50.808;4.402;2023-07-20T13:49:13;20.95;;;3.08;;
41875;SDS011;27555;50.808;4.402;2023-07-20T13:51:41;14.90;;;1.77;;
41875;SDS011;27555;50.808;4.402;2023-07-20T13:54:07;11.05;;;1.10;;
41875;SDS011;27555;50.808;4.402;2023-07-20T13:56:33;3.20;;;1.05;;
41875;SDS011;27555;50.808;4.402;2023-07-20T13:58:58;1.65;;;0.98;;
41875;SDS011;27555;50.808;4.402;2023-07-20T14:01:24;4.65;;;1.60;;
41875;SDS011;27555;50.808;4.402;2023-07-20T14:03:52;15.25;;;1.15;;
41875;SDS011;27555;50.808;4.402;2023-07-20T14:06:18;7.72;;;1.40;;
41875;SDS011;27555;50.808;4.402;2023-07-20T14:08:43;4.20;;;1.17;;
41875;SDS011;27555;50.808;4.402;2023-07-20T14:11:12;9.75;;;1.25;;
41875;SDS011;27555;50.808;4.402;2023-07-20T14:13:38;14.70;;;2.17;;
41875;SDS011;27555;50.808;4.402;2023-07-20T14:16:04;5.18;;;0.90;;
41875;SDS011;27555;50.808;4.402;2023-07-20T14:18:30;12.63;;;1.50;;
41875;SDS011;27555;50.808;4.402;2023-07-20T14:20:55;9.80;;;1.65;;
41875;SDS011;27555;50.808;4.402;2023-07-20T14:23:21;4.35;;;0.93;;
41875;SDS011;27555;50.808;4.402;2023-07-20T14:25:47;14.73;;;2.00;;
41875;SDS011;27555;50.808;4.402;2023-07-20T14:28:13;2.88;;;0.90;;
41875;SDS011;27555;50.808;4.402;2023-07-20T14:30:39;5.55;;;1.20;;
41875;SDS011;27555;50.808;4.402;2023-07-20T14:33:05;8.88;;;1.10;;
41875;SDS011;27555;50.808;4.402;2023-07-20T14:35:30;13.00;;;1.40;;
41875;SDS011;27555;50.808;4.402;2023-07-20T14:37:56;3.05;;;0.80;;
41875;SDS011;27555;50.808;4.402;2023-07-20T14:40:21;5.43;;;1.30;;
41875;SDS011;27555;50.808;4.402;2023-07-20T14:42:47;15.05;;;1.73;;
41875;SDS011;27555;50.808;4.402;2023-07-20T14:45:13;3.30;;;1.17;;
41875;SDS011;27555;50.808;4.402;2023-07-20T14:47:39;4.22;;;0.90;;
41875;SDS011;27555;50.808;4.402;2023-07-20T14:50:05;4.78;;;1.15;;
41875;SDS011;27555;50.808;4.402;2023-07-20T14:52:31;2.72;;;1.52;;
41875;SDS011;27555;50.808;4.402;2023-07-20T14:54:57;5.38;;;2.25;;
41875;SDS011;27555;50.808;4.402;2023-07-20T14:57:22;1.75;;;0.77;;
41875;SDS011;27555;50.808;4.402;2023-07-20T14:59:51;7.18;;;1.70;;
41875;SDS011;27555;50.808;4.402;2023-07-20T15:02:17;13.55;;;1.02;;
41875;SDS011;27555;50.808;4.402;2023-07-20T15:04:50;6.47;;;1.52;;